Airfield :
LOGIN :

Register | Disclaimer

   EN    FR    IT 

 










Legend :    VFR   Marginal VFR   IFR   Intensive IFR   Very Intensive IFR
Visi :
Ceiling :
>= 8 km
>= 3000ft
5 to 8 km
1000 to 3000 ft
1500m to 5 km
500 to 1000 ft
800 to 1500m
200 to 500 ft
< 800m
< 200 ft
Symbols :   Thunderstorms  Fog  Heavy snow  Heavy precipitations  Wind > 20 kt
SIGMETs :     Misc.  Thunderstorms  Icing  Turbulence  Mountain Waves  Volcanic Ashes






- Airport Elevation : 265 ft
- IATA code : BJY


LYBT - Batajnica Air Base

CURRENT METAR :
  • 301400Z 00000KT 9999 BKN030 04/02 Q1027 NOSIG

EXPIRED METARs :
  • 301330Z VRB01KT 9999 BKN023 04/02 Q1027 NOSIG
  • 301300Z 29005KT 9999 SCT017 BKN023 04/02 Q1027 NOSIG
  • 301230Z 25004KT 220V290 8000 BKN017 04/02 Q1027 NOSIG
  • 301200Z 25006KT 210V280 9999 FEW025 BKN033 04/02 Q1027 NOSIG
  • 301130Z 24006KT 200V280 9999 BKN033 04/01 Q1027 NOSIG

TAF TAF LYBT
Valid from the 30 at 12:00 until the 01 at 12:00 UTC


301100Z 3012/0112 28006KT 9999 SCT040 TX04/3012Z TNM03/0105Z
BECMG 3020/3022 3000 BR
BECMG 0100/0102 0200 FZFG
BECMG 0107/0109 3000 BR
BECMG 0109/0111 13010KT 9999 NSW



MET'MAP, your aeronautical weather chart ! - Copyright ORBIFLY December 2007 - Disclaimer

ORBIFLY MET'MAP TEAM :

Programming & Development : Alexandra Zaïnal
Concept & original design : Baudouin d'Aumeries
Assistance for programming : Marc-Olivier Méhu
Technical & hardware support : Manuel Goepfert

Contact : metmap@orbifly.com




SOURCES & CREDITS :

   NOAA